Time;durP1;ratioP1;P1;durP2;ratioP2;P2;SDS_P1;SDS_P2;PMS_P1;PMS_P2;Temp;Humidity;BMP_temperature;BMP_pressure;BME280_temperature;BME280_humidity;BME280_pressure;Samples;Min_cycle;Max_cycle;Signal;HPM_P1;HPM_P2
2024/04/01 00:00:33;;;;;;;878.53;818.20;;;9.50;99.90;;;;;;5074535;28;20457;-67
2024/04/01 00:03:00;;;;;;;872.67;811.90;;;9.50;99.90;;;;;;5074647;28;20866;-68
2024/04/01 00:05:26;;;;;;;877.13;817.30;;;9.50;99.90;;;;;;5074520;28;20220;-68
2024/04/01 00:07:55;;;;;;;873.87;814.03;;;9.50;99.90;;;;;;5077912;28;20468;-68
2024/04/01 00:10:21;;;;;;;882.77;822.77;;;9.50;99.90;;;;;;5079358;28;20486;-67
2024/04/01 00:12:49;;;;;;;880.00;820.50;;;9.60;99.90;;;;;;5082944;28;20481;-67
2024/04/01 00:15:16;;;;;;;886.73;825.87;;;9.60;99.90;;;;;;5080978;28;20452;-68
2024/04/01 00:17:43;;;;;;;888.77;827.53;;;9.50;99.90;;;;;;5077761;28;21024;-67
2024/04/01 00:20:09;;;;;;;893.03;831.77;;;9.50;99.90;;;;;;5080600;28;20445;-67
2024/04/01 00:22:36;;;;;;;889.67;827.37;;;9.40;99.90;;;;;;5074343;28;20464;-67
2024/04/01 00:25:02;;;;;;;893.27;829.23;;;9.40;99.90;;;;;;5074238;28;21000;-67
2024/04/01 00:27:28;;;;;;;892.63;827.23;;;9.30;99.90;;;;;;5082790;28;20461;-67
2024/04/01 00:29:56;;;;;;;888.53;820.93;;;9.20;99.90;;;;;;5073869;28;20462;-67
2024/04/01 00:32:22;;;;;;;891.60;823.60;;;9.20;99.90;;;;;;5082391;28;20557;-67
2024/04/01 00:34:48;;;;;;;891.30;821.80;;;9.10;99.90;;;;;;5082447;28;20478;-67
2024/04/01 00:37:15;;;;;;;890.17;819.13;;;9.10;99.90;;;;;;5074171;28;20464;-67
2024/04/01 00:39:41;;;;;;;895.03;822.43;;;9.00;99.90;;;;;;5082091;28;20195;-67
2024/04/01 00:42:08;;;;;;;891.57;817.50;;;9.00;99.90;;;;;;5074031;28;20460;-67
2024/04/01 00:44:33;;;;;;;886.67;812.83;;;9.00;99.90;;;;;;5073797;28;20226;-67
2024/04/01 00:47:02;;;;;;;882.37;809.20;;;9.00;99.90;;;;;;5073681;28;20478;-67
2024/04/01 00:49:27;;;;;;;877.23;804.93;;;9.00;99.90;;;;;;5073687;28;20200;-66
2024/04/01 00:51:55;;;;;;;854.10;780.67;;;9.00;99.90;;;;;;5082324;28;20611;-67
2024/04/01 00:54:21;;;;;;;858.90;785.83;;;8.90;99.90;;;;;;5073697;28;20855;-67
2024/04/01 00:56:49;;;;;;;866.77;793.57;;;8.90;99.90;;;;;;5082164;28;20454;-67
2024/04/01 00:59:16;;;;;;;859.93;785.73;;;8.80;99.90;;;;;;5072840;28;21055;-67
2024/04/01 01:01:46;;;;;;;858.77;782.57;;;8.80;99.90;;;;;;5073476;28;20553;-67
2024/04/01 01:04:14;;;;;;;852.10;775.80;;;8.80;99.90;;;;;;5073707;28;20496;-68
2024/04/01 01:06:42;;;;;;;859.30;783.10;;;8.80;99.90;;;;;;5073647;28;20482;-67
2024/04/01 01:09:11;;;;;;;860.57;783.37;;;8.80;99.90;;;;;;5073362;28;20450;-68
2024/04/01 01:11:39;;;;;;;866.47;790.03;;;8.80;99.90;;;;;;5081812;28;20453;-67
2024/04/01 01:14:05;;;;;;;881.73;803.90;;;8.80;99.90;;;;;;5081445;28;20466;-67
2024/04/01 01:16:32;;;;;;;878.20;800.20;;;8.80;99.90;;;;;;5073057;28;20835;-67
2024/04/01 01:18:58;;;;;;;883.57;805.17;;;8.80;99.90;;;;;;5077100;28;20453;-67
2024/04/01 01:21:26;;;;;;;866.73;790.67;;;8.80;99.90;;;;;;5077834;28;20478;-68
2024/04/01 01:23:54;;;;;;;875.80;799.77;;;8.90;99.90;;;;;;5073009;28;20476;-67
2024/04/01 01:26:21;;;;;;;878.37;802.97;;;8.90;99.90;;;;;;5081432;28;20504;-67
2024/04/01 01:28:50;;;;;;;878.93;803.03;;;8.80;99.90;;;;;;5081331;28;20450;-68
2024/04/01 01:31:18;;;;;;;873.87;798.13;;;8.90;99.90;;;;;;5072949;28;20466;-68
2024/04/01 01:33:44;;;;;;;857.70;783.73;;;8.90;99.90;;;;;;5081162;28;20469;-66
2024/04/01 01:36:10;;;;;;;860.77;787.90;;;8.90;99.90;;;;;;5073048;28;20455;-67
2024/04/01 01:38:36;;;;;;;869.70;796.40;;;8.90;99.90;;;;;;5080915;28;20456;-68
2024/04/01 01:41:05;;;;;;;863.03;791.07;;;9.00;99.90;;;;;;5072862;28;20810;-67
2024/04/01 01:43:31;;;;;;;866.07;793.50;;;8.90;99.90;;;;;;5072574;28;20553;-67
2024/04/01 01:45:57;;;;;;;863.60;791.10;;;9.00;99.90;;;;;;5081244;28;20490;-67
2024/04/01 01:48:23;;;;;;;887.80;815.43;;;8.90;99.90;;;;;;5072423;28;20200;-67
2024/04/01 01:50:50;;;;;;;885.10;813.27;;;8.90;99.90;;;;;;5072797;28;20464;-67
2024/04/01 01:53:16;;;;;;;873.80;802.17;;;8.90;99.90;;;;;;5078977;28;20227;-67
2024/04/01 01:55:42;;;;;;;879.37;807.47;;;8.90;99.90;;;;;;5082786;28;20449;-68
2024/04/01 01:58:10;;;;;;;890.17;817.87;;;8.90;99.90;;;;;;5077779;28;20203;-67
2024/04/01 02:00:36;;;;;;;871.73;799.27;;;8.90;99.90;;;;;;5075180;28;20466;-68
2024/04/01 02:03:06;;;;;;;864.87;791.20;;;8.80;99.90;;;;;;5072613;28;20558;-68
2024/04/01 02:05:33;;;;;;;879.80;804.30;;;8.70;99.90;;;;;;5072240;28;20482;-67
2024/04/01 02:07:58;;;;;;;876.10;802.30;;;8.70;99.90;;;;;;5072282;28;20964;-67
2024/04/01 02:10:26;;;;;;;881.43;807.37;;;8.60;99.90;;;;;;5078919;28;20458;-67
2024/04/01 02:12:52;;;;;;;883.33;809.03;;;8.60;99.90;;;;;;5072307;28;20470;-68
2024/04/01 02:15:23;;;;;;;887.40;813.00;;;8.50;99.90;;;;;;5080828;28;20462;-66
2024/04/01 02:17:49;;;;;;;898.00;821.70;;;8.40;99.90;;;;;;5074658;28;20206;-68
2024/04/01 02:20:16;;;;;;;892.97;815.90;;;8.40;99.90;;;;;;5077391;28;20469;-67
2024/04/01 02:22:44;;;;;;;893.47;815.50;;;8.40;99.90;;;;;;5080315;28;20454;-67
2024/04/01 02:25:11;;;;;;;890.43;810.10;;;8.30;99.90;;;;;;5072232;28;20462;-67
2024/04/01 02:27:37;;;;;;;895.70;814.20;;;8.30;99.90;;;;;;5072135;28;20837;-67
2024/04/01 02:30:05;;;;;;;894.03;810.80;;;8.40;99.90;;;;;;5079998;28;20466;-67
2024/04/01 02:32:32;;;;;;;892.60;808.50;;;8.30;99.90;;;;;;5071933;28;20458;-68
2024/04/01 02:34:59;;;;;;;887.17;804.27;;;8.30;99.90;;;;;;5080402;28;20458;-67
2024/04/01 02:37:25;;;;;;;894.50;810.90;;;8.30;99.90;;;;;;5079279;28;20541;-67
2024/04/01 02:39:51;;;;;;;895.40;811.97;;;8.20;99.90;;;;;;5080720;28;20549;-68
2024/04/01 02:42:17;;;;;;;899.37;814.03;;;8.20;99.90;;;;;;5078659;28;20200;-67
2024/04/01 02:44:44;;;;;;;853.67;769.97;;;8.20;99.90;;;;;;5081691;28;20846;-67
2024/04/01 02:47:10;;;;;;;859.30;775.90;;;8.20;99.90;;;;;;5071867;28;20215;-68
2024/04/01 02:49:38;;;;;;;868.00;784.80;;;8.20;99.90;;;;;;5071455;28;20468;-67
2024/04/01 02:52:04;;;;;;;866.67;782.60;;;8.20;99.90;;;;;;5071675;28;20200;-67
2024/04/01 02:54:31;;;;;;;859.20;774.70;;;8.10;99.90;;;;;;5071641;28;20473;-68
2024/04/01 02:56:57;;;;;;;870.73;785.07;;;8.10;99.90;;;;;;5071803;28;20453;-67
2024/04/01 02:59:24;;;;;;;904.80;816.83;;;8.10;99.90;;;;;;5071392;28;20458;-67
2024/04/01 03:01:50;;;;;;;902.80;817.30;;;8.10;99.90;;;;;;5080058;28;20450;-68
2024/04/01 03:04:17;;;;;;;888.63;805.23;;;8.10;99.90;;;;;;5072205;28;20867;-67
2024/04/01 03:06:44;;;;;;;904.03;819.00;;;8.10;99.90;;;;;;5071328;28;20310;-68
2024/04/01 03:09:10;;;;;;;915.27;829.17;;;8.10;99.90;;;;;;5071294;28;20462;-68
2024/04/01 03:11:36;;;;;;;928.33;841.73;;;8.00;99.90;;;;;;5071767;28;20859;-67
2024/04/01 03:14:03;;;;;;;934.47;846.10;;;8.00;99.90;;;;;;5080667;28;20474;-67
2024/04/01 03:16:29;;;;;;;925.97;838.90;;;8.10;99.90;;;;;;5080637;28;20203;-67
2024/04/01 03:18:56;;;;;;;899.20;814.30;;;8.10;99.90;;;;;;5071531;28;20465;-67
2024/04/01 03:21:22;;;;;;;891.60;809.30;;;8.10;99.90;;;;;;5071361;28;20204;-67
2024/04/01 03:23:52;;;;;;;885.47;803.17;;;8.00;99.90;;;;;;5074898;28;20549;-67
2024/04/01 03:26:17;;;;;;;889.30;806.70;;;7.90;99.90;;;;;;5075333;28;20485;-65
2024/04/01 03:28:44;;;;;;;886.90;804.07;;;7.90;99.90;;;;;;5083353;28;20457;-67
2024/04/01 03:31:11;;;;;;;885.93;803.27;;;7.80;99.90;;;;;;5075287;28;20466;-67
2024/04/01 03:33:37;;;;;;;896.90;813.10;;;7.80;99.90;;;;;;5074989;28;20474;-68
2024/04/01 03:36:04;;;;;;;898.37;813.67;;;7.80;99.90;;;;;;5075758;28;20476;-67
2024/04/01 03:38:31;;;;;;;897.90;812.90;;;7.70;99.90;;;;;;5083343;28;20458;-67
2024/04/01 03:40:59;;;;;;;901.00;815.47;;;7.70;99.90;;;;;;5075231;28;20446;-67
2024/04/01 03:43:26;;;;;;;907.53;820.47;;;7.70;99.90;;;;;;5074921;28;20565;-68
2024/04/01 03:45:58;;;;;;;911.53;825.23;;;7.70;99.90;;;;;;5083266;28;20881;-67
2024/04/01 03:48:25;;;;;;;909.27;822.70;;;7.70;99.90;;;;;;5081864;28;21039;-67
2024/04/01 03:50:52;;;;;;;883.00;796.03;;;7.70;99.90;;;;;;5075596;28;20445;-68
2024/04/01 03:53:19;;;;;;;895.47;807.77;;;7.70;99.90;;;;;;5081674;28;20480;-68
2024/04/01 03:55:46;;;;;;;900.17;811.77;;;7.70;99.90;;;;;;5076385;28;20955;-67
2024/04/01 03:58:13;;;;;;;894.07;804.90;;;7.70;99.90;;;;;;5075070;28;20453;-67
2024/04/01 04:00:40;;;;;;;887.73;798.90;;;7.70;99.90;;;;;;5074427;28;20457;-67
2024/04/01 04:03:07;;;;;;;897.73;808.53;;;7.70;99.90;;;;;;5074631;28;21016;-67
2024/04/01 04:05:34;;;;;;;889.50;802.40;;;7.70;99.90;;;;;;5083112;28;20464;-67
2024/04/01 04:08:01;;;;;;;900.37;813.50;;;7.70;99.90;;;;;;5083048;28;20454;-68
2024/04/01 04:10:28;;;;;;;886.53;799.07;;;7.70;99.90;;;;;;5082424;28;20548;-66
2024/04/01 04:12:54;;;;;;;876.83;786.23;;;7.70;99.90;;;;;;5074264;28;20481;-67
2024/04/01 04:15:22;;;;;;;854.80;766.00;;;7.70;99.90;;;;;;5074309;28;20458;-67
2024/04/01 04:17:48;;;;;;;848.13;760.80;;;7.70;99.90;;;;;;5074852;28;20207;-67
2024/04/01 04:20:15;;;;;;;857.40;769.93;;;7.80;99.90;;;;;;5082565;28;20823;-68
2024/04/01 04:22:41;;;;;;;852.13;764.30;;;7.90;99.90;;;;;;5074323;28;20269;-67
2024/04/01 04:25:08;;;;;;;857.50;768.80;;;7.80;99.90;;;;;;5074342;28;20529;-68
2024/04/01 04:27:34;;;;;;;860.60;772.13;;;7.90;99.90;;;;;;5082407;28;20226;-67
2024/04/01 04:30:00;;;;;;;854.07;766.20;;;7.90;99.90;;;;;;5073639;28;20458;-67
2024/04/01 04:32:28;;;;;;;843.00;756.20;;;8.00;99.90;;;;;;5074437;28;20835;-68
2024/04/01 04:34:55;;;;;;;856.10;769.10;;;8.00;99.90;;;;;;5073178;28;20770;-67
2024/04/01 04:37:22;;;;;;;867.03;780.53;;;8.10;99.90;;;;;;5082593;28;20541;-67
2024/04/01 04:39:48;;;;;;;868.00;781.40;;;8.10;99.90;;;;;;5081862;28;20209;-67
2024/04/01 04:42:15;;;;;;;881.63;793.80;;;8.20;99.90;;;;;;5080039;28;20547;-68
2024/04/01 04:44:43;;;;;;;882.03;794.77;;;8.30;99.90;;;;;;5077138;28;20220;-67
2024/04/01 04:47:10;;;;;;;865.67;780.30;;;8.20;99.90;;;;;;5080597;28;20482;-68
2024/04/01 04:49:37;;;;;;;882.03;794.73;;;8.20;99.90;;;;;;5073757;28;20454;-68
2024/04/01 04:52:04;;;;;;;899.60;810.43;;;8.20;99.90;;;;;;5073970;28;20465;-68
2024/04/01 04:54:30;;;;;;;895.57;806.80;;;8.30;99.90;;;;;;5073810;28;20819;-68
2024/04/01 04:56:57;;;;;;;904.63;815.77;;;8.30;99.90;;;;;;5073488;28;20461;-68
2024/04/01 04:59:23;;;;;;;899.67;811.93;;;8.40;99.90;;;;;;5088942;28;20671;-68
2024/04/01 05:01:49;;;;;;;889.37;800.10;;;8.40;99.90;;;;;;5093895;28;20548;-68
2024/04/01 05:04:15;;;;;;;888.43;800.03;;;8.40;99.90;;;;;;5093871;28;20241;-68
2024/04/01 05:06:43;;;;;;;884.10;796.60;;;8.50;99.90;;;;;;5083825;28;20478;-67
2024/04/01 05:09:09;;;;;;;858.27;771.33;;;8.50;99.90;;;;;;5073048;28;20214;-68
2024/04/01 05:11:36;;;;;;;853.37;767.03;;;8.60;99.90;;;;;;5073239;28;20464;-67
2024/04/01 05:14:03;;;;;;;868.80;782.80;;;8.60;99.90;;;;;;5073523;28;20216;-67
2024/04/01 05:16:30;;;;;;;876.27;790.37;;;8.60;99.90;;;;;;5073616;28;20450;-67
2024/04/01 05:18:55;;;;;;;861.67;776.80;;;8.70;99.90;;;;;;5076542;28;20825;-67
2024/04/01 05:21:22;;;;;;;845.20;759.47;;;8.70;99.90;;;;;;5078305;28;20454;-67
2024/04/01 05:23:52;;;;;;;845.60;759.50;;;8.70;99.90;;;;;;5073128;28;20220;-67
2024/04/01 05:26:19;;;;;;;857.73;771.37;;;8.80;99.90;;;;;;5073429;28;20489;-67
2024/04/01 05:28:45;;;;;;;844.43;755.93;;;8.80;99.90;;;;;;5072755;28;20582;-67
2024/04/01 05:31:12;;;;;;;834.87;746.70;;;8.80;99.90;;;;;;5078664;28;20461;-67
2024/04/01 05:33:38;;;;;;;840.30;751.50;;;8.80;99.90;;;;;;5083717;28;20219;-67
2024/04/01 05:36:06;;;;;;;863.93;773.43;;;8.80;99.90;;;;;;5073034;28;20902;-67
2024/04/01 05:38:32;;;;;;;877.97;789.00;;;8.80;99.90;;;;;;5072453;28;20454;-66
2024/04/01 05:41:00;;;;;;;883.60;792.20;;;8.80;99.90;;;;;;5071937;28;20462;-66
2024/04/01 05:43:27;;;;;;;904.67;815.00;;;8.90;99.90;;;;;;5076284;28;20850;-66
2024/04/01 05:45:54;;;;;;;921.43;827.93;;;8.90;99.90;;;;;;5075094;28;20465;-64
2024/04/01 05:48:19;;;;;;;913.07;819.40;;;8.90;99.90;;;;;;5063696;28;20446;-67
2024/04/01 05:50:48;;;;;;;944.53;851.97;;;8.90;99.90;;;;;;5075968;28;20451;-66
2024/04/01 05:53:13;;;;;;;966.83;874.23;;;9.00;99.90;;;;;;5081159;28;20224;-67
2024/04/01 05:55:40;;;;;;;978.70;884.90;;;9.00;99.90;;;;;;5086117;28;20457;-67
2024/04/01 05:58:08;;;;;;;984.80;891.40;;;9.00;99.90;;;;;;5073714;28;20665;-67
2024/04/01 06:00:34;;;;;;;990.27;897.67;;;9.10;99.90;;;;;;5083162;28;20461;-66
2024/04/01 06:03:00;;;;;;;1019.37;925.97;;;9.10;99.90;;;;;;5076733;28;20469;-67
2024/04/01 06:05:27;;;;;;;1047.33;953.00;;;9.10;99.90;;;;;;5081060;28;20468;-66
2024/04/01 06:07:54;;;;;;;1056.67;961.97;;;9.10;99.90;;;;;;5074756;28;20588;-66
2024/04/01 06:10:21;;;;;;;1046.63;951.83;;;9.10;99.90;;;;;;5083532;28;20504;-66
2024/04/01 06:12:46;;;;;;;1098.53;999.90;;;9.10;99.90;;;;;;5074931;27;20474;-66
2024/04/01 06:15:15;;;;;;;1087.60;992.60;;;9.10;99.90;;;;;;5088765;28;20821;-66
2024/04/01 06:17:41;;;;;;;1124.60;999.90;;;9.10;99.90;;;;;;5074819;28;20192;-67
2024/04/01 06:20:10;;;;;;;1124.57;999.90;;;9.10;99.90;;;;;;5078638;28;20974;-66
2024/04/01 06:22:37;;;;;;;1104.97;999.90;;;9.10;99.90;;;;;;5083007;28;20547;-66
2024/04/01 06:25:03;;;;;;;1117.00;999.90;;;9.20;99.90;;;;;;5070980;28;20457;-66
2024/04/01 06:27:30;;;;;;;1106.33;999.90;;;9.10;99.90;;;;;;5080259;28;20469;-64
2024/04/01 06:29:56;;;;;;;1106.17;999.90;;;9.20;99.90;;;;;;5083319;28;20549;-66
2024/04/01 06:32:24;;;;;;;1079.23;982.73;;;9.10;99.90;;;;;;5085132;28;20920;-67
2024/04/01 06:34:50;;;;;;;1104.57;999.90;;;9.10;99.90;;;;;;5075660;28;20202;-66
2024/04/01 06:37:17;;;;;;;1102.40;999.90;;;9.10;99.90;;;;;;5077542;28;20957;-66
2024/04/01 06:39:43;;;;;;;1114.73;999.90;;;9.20;99.90;;;;;;5088214;28;20445;-66
2024/04/01 06:42:10;;;;;;;1058.40;963.00;;;9.20;99.90;;;;;;5071922;28;20480;-66
2024/04/01 06:44:36;;;;;;;1099.27;999.90;;;9.20;99.90;;;;;;5082871;28;20547;-66
2024/04/01 06:47:03;;;;;;;1084.10;987.90;;;9.10;99.90;;;;;;5079331;28;20473;-66
2024/04/01 06:49:30;;;;;;;1085.83;986.87;;;9.10;99.90;;;;;;5079904;28;20476;-67
2024/04/01 06:51:57;;;;;;;1058.37;960.40;;;9.20;99.90;;;;;;5078149;28;20453;-66
2024/04/01 06:54:22;;;;;;;1056.50;959.30;;;9.20;99.90;;;;;;5081800;28;20470;-66
2024/04/01 06:56:49;;;;;;;1047.40;953.87;;;9.20;99.90;;;;;;5079026;28;20457;-67
2024/04/01 06:59:15;;;;;;;1048.17;954.07;;;9.20;99.90;;;;;;5080644;28;20675;-66
2024/04/01 07:01:42;;;;;;;1080.67;987.23;;;9.20;99.90;;;;;;5079405;28;20456;-66
2024/04/01 07:04:07;;;;;;;1032.63;939.57;;;9.30;99.90;;;;;;5079206;28;20215;-67
2024/04/01 07:06:36;;;;;;;1021.23;927.27;;;9.30;99.90;;;;;;5083915;28;20807;-65
2024/04/01 07:09:02;;;;;;;1047.87;954.00;;;9.30;99.90;;;;;;5079569;28;20951;-67
2024/04/01 07:11:29;;;;;;;1041.60;950.27;;;9.40;99.90;;;;;;5072622;28;20482;-66
2024/04/01 07:13:55;;;;;;;1026.93;935.57;;;9.30;99.90;;;;;;5073608;28;20477;-66
2024/04/01 07:16:22;;;;;;;1046.47;955.73;;;9.40;99.90;;;;;;5077141;28;20450;-66
2024/04/01 07:18:47;;;;;;;1039.03;949.33;;;9.40;99.90;;;;;;5078878;28;20662;-66
2024/04/01 07:21:14;;;;;;;1035.77;946.23;;;9.40;99.90;;;;;;5072580;28;20473;-65
2024/04/01 07:23:44;;;;;;;1053.70;962.90;;;9.50;99.90;;;;;;5074418;28;20227;-66
2024/04/01 07:26:10;;;;;;;1048.87;959.07;;;9.60;99.90;;;;;;5077362;28;20453;-66
2024/04/01 07:28:36;;;;;;;1039.03;952.20;;;9.60;99.90;;;;;;5078000;28;20449;-66
2024/04/01 07:31:04;;;;;;;1032.90;946.90;;;9.70;99.90;;;;;;5075808;28;20464;-66
2024/04/01 07:33:30;;;;;;;1035.37;947.90;;;9.70;99.90;;;;;;5070933;28;20745;-67
2024/04/01 07:35:57;;;;;;;1025.40;939.67;;;9.80;99.90;;;;;;5079834;28;20455;-67
2024/04/01 07:38:23;;;;;;;1025.40;941.50;;;9.80;99.90;;;;;;5073877;28;20195;-66
2024/04/01 07:40:51;;;;;;;1000.50;916.23;;;9.80;99.90;;;;;;5064176;28;20461;-66
2024/04/01 07:43:16;;;;;;;1011.40;928.30;;;9.80;99.90;;;;;;5074646;28;20211;-66
2024/04/01 07:45:43;;;;;;;1020.33;937.87;;;9.80;99.90;;;;;;5079802;28;20453;-66
2024/04/01 07:48:09;;;;;;;1050.43;967.17;;;9.80;99.90;;;;;;5076453;28;20216;-67
2024/04/01 07:50:36;;;;;;;1049.27;966.40;;;9.80;99.90;;;;;;5070740;28;21024;-67
2024/04/01 07:53:02;;;;;;;1038.67;956.07;;;9.80;99.90;;;;;;5071182;28;20750;-67
2024/04/01 07:55:29;;;;;;;1034.20;951.20;;;9.80;99.90;;;;;;5071164;28;20907;-67
2024/04/01 07:57:56;;;;;;;1030.87;948.37;;;9.70;99.90;;;;;;5082669;28;20238;-66
2024/04/01 08:00:23;;;;;;;1021.67;939.17;;;9.70;99.90;;;;;;5075266;28;20466;-67
2024/04/01 08:02:48;;;;;;;1028.97;944.87;;;9.70;99.90;;;;;;5070829;28;20997;-67
2024/04/01 08:05:15;;;;;;;1018.93;935.97;;;9.60;99.90;;;;;;5079737;28;20824;-67
2024/04/01 08:07:41;;;;;;;1026.47;942.17;;;9.60;99.90;;;;;;5078784;28;20307;-67
2024/04/01 08:10:08;;;;;;;1045.17;961.27;;;9.70;99.90;;;;;;5076277;28;20897;-67
2024/04/01 08:12:34;;;;;;;1030.47;946.87;;;9.70;99.90;;;;;;5076342;28;20203;-66
2024/04/01 08:15:02;;;;;;;1034.37;950.23;;;9.70;99.90;;;;;;5076005;28;20458;-67
2024/04/01 08:17:28;;;;;;;1039.30;958.33;;;9.80;99.90;;;;;;5089450;28;20248;-67
2024/04/01 08:19:55;;;;;;;1058.30;976.63;;;9.70;99.90;;;;;;5080567;28;20950;-66
2024/04/01 08:22:21;;;;;;;1046.37;964.73;;;9.70;99.90;;;;;;5076449;28;20286;-67
2024/04/01 08:24:48;;;;;;;1025.57;944.77;;;9.70;99.90;;;;;;5083024;28;20478;-67
2024/04/01 08:27:16;;;;;;;971.97;892.30;;;9.70;99.90;;;;;;5079990;28;20583;-66
2024/04/01 08:29:43;;;;;;;976.77;896.90;;;9.70;99.90;;;;;;5084140;28;20893;-67
2024/04/01 08:32:10;;;;;;;990.77;912.00;;;9.70;99.90;;;;;;5082754;28;20831;-66
2024/04/01 08:34:37;;;;;;;943.80;870.07;;;9.70;99.90;;;;;;5074303;28;20533;-67
2024/04/01 08:37:03;;;;;;;906.93;837.87;;;9.50;99.90;;;;;;5082519;28;20450;-66
2024/04/01 08:39:30;;;;;;;917.60;848.13;;;9.50;99.90;;;;;;5081887;28;20843;-67
2024/04/01 08:42:01;;;;;;;906.43;836.97;;;9.50;99.90;;;;;;5074050;28;20541;-68
2024/04/01 08:44:29;;;;;;;859.23;794.03;;;9.50;99.90;;;;;;5082505;28;20485;-66
2024/04/01 08:46:57;;;;;;;918.83;850.77;;;9.50;99.90;;;;;;5081959;28;20868;-67
2024/04/01 08:49:35;;;;;;;877.03;809.93;;;9.50;99.90;;;;;;5082184;28;20536;-66
2024/04/01 08:52:04;;;;;;;861.27;795.27;;;9.60;99.90;;;;;;5073989;28;20520;-67
2024/04/01 08:54:31;;;;;;;851.53;784.50;;;9.60;99.90;;;;;;5080043;28;20500;-65
2024/04/01 08:56:57;;;;;;;852.90;785.90;;;9.60;99.90;;;;;;5083098;28;20447;-66
2024/04/01 08:59:26;;;;;;;878.80;809.87;;;9.60;99.90;;;;;;5085147;28;20449;-67
2024/04/01 09:01:52;;;;;;;873.77;804.17;;;9.60;99.90;;;;;;5074308;28;20208;-66
2024/04/01 09:04:18;;;;;;;903.53;831.43;;;9.60;99.90;;;;;;5073683;28;20915;-67
2024/04/01 09:06:46;;;;;;;875.47;806.77;;;9.60;99.90;;;;;;5082103;28;20219;-67
2024/04/01 09:09:12;;;;;;;873.70;805.37;;;9.50;99.90;;;;;;5074325;28;20493;-67
2024/04/01 09:11:39;;;;;;;872.40;803.57;;;9.50;99.90;;;;;;5079992;28;20446;-66
2024/04/01 09:14:06;;;;;;;882.03;813.57;;;9.50;99.90;;;;;;5074945;28;20474;-67
2024/04/01 09:16:32;;;;;;;882.63;813.33;;;9.60;99.90;;;;;;5073599;28;20965;-66
2024/04/01 09:19:06;;;;;;;899.67;830.43;;;9.60;99.90;;;;;;5081238;28;20465;-67
2024/04/01 09:21:33;;;;;;;912.70;845.00;;;9.70;99.90;;;;;;5081160;28;20453;-66
2024/04/01 09:24:01;;;;;;;906.70;838.17;;;9.70;99.90;;;;;;5081898;28;20748;-67
2024/04/01 09:26:29;;;;;;;904.87;837.90;;;9.70;99.90;;;;;;5074913;28;20449;-67
2024/04/01 09:28:55;;;;;;;849.30;785.80;;;9.70;99.90;;;;;;5076019;28;20458;-66
2024/04/01 09:31:22;;;;;;;872.93;807.17;;;9.80;99.90;;;;;;5075377;28;20536;-66
2024/04/01 09:33:50;;;;;;;861.43;796.93;;;9.90;99.90;;;;;;5082819;28;20470;-67
2024/04/01 09:36:16;;;;;;;851.93;788.63;;;10.00;99.90;;;;;;5073308;28;20453;-67
2024/04/01 09:38:43;;;;;;;835.63;774.67;;;10.00;99.90;;;;;;5084520;28;20445;-67
2024/04/01 09:41:10;;;;;;;820.10;759.93;;;9.90;99.90;;;;;;5081285;28;20453;-67
2024/04/01 09:43:37;;;;;;;803.43;745.77;;;9.90;99.90;;;;;;5073078;28;20524;-67
2024/04/01 09:46:03;;;;;;;829.40;769.80;;;9.90;99.90;;;;;;5072894;28;20840;-67
2024/04/01 09:48:31;;;;;;;822.63;764.53;;;10.00;99.90;;;;;;5080788;28;20481;-67
2024/04/01 09:50:58;;;;;;;806.67;747.67;;;9.90;99.90;;;;;;5072479;28;21065;-67
2024/04/01 09:53:25;;;;;;;795.80;737.80;;;10.00;99.90;;;;;;5079957;28;20480;-67
2024/04/01 09:56:15;;;;;;;776.87;720.80;;;10.10;99.90;;;;;;5073487;28;20465;-68
2024/04/01 09:59:01;;;;;;;777.47;723.10;;;10.00;99.90;;;;;;5073622;28;20459;-68
2024/04/01 10:01:37;;;;;;;764.07;708.47;;;10.20;99.90;;;;;;5075032;28;20983;-67
2024/04/01 10:04:28;;;;;;;718.13;669.40;;;10.40;99.90;;;;;;5077065;28;20480;-66
2024/04/01 10:07:28;;;;;;;704.90;659.60;;;10.40;99.90;;;;;;5075835;28;20225;-67
2024/04/01 10:10:39;;;;;;;692.17;649.97;;;10.40;99.90;;;;;;5082615;28;20450;-67
2024/04/01 10:13:55;;;;;;;689.17;649.27;;;10.40;99.90;;;;;;5043061;28;20481;-67
2024/04/01 10:16:43;;;;;;;663.20;630.50;;;10.20;99.90;;;;;;5043211;28;20458;-66
2024/04/01 10:19:31;;;;;;;681.73;647.50;;;10.10;99.90;;;;;;5077123;28;20449;-67
2024/04/01 10:22:33;;;;;;;696.00;658.03;;;10.00;99.90;;;;;;5071850;28;20464;-67
2024/04/01 10:25:26;;;;;;;709.30;668.60;;;10.00;99.90;;;;;;5076223;28;20466;-68
2024/04/01 10:28:44;;;;;;;718.03;679.50;;;10.20;99.90;;;;;;5080315;28;20482;-68
2024/04/01 10:31:43;;;;;;;738.90;699.30;;;10.10;99.90;;;;;;5071858;28;20477;-67
2024/04/01 10:34:37;;;;;;;761.20;717.50;;;10.10;99.90;;;;;;5071789;28;20896;-67
2024/04/01 10:37:36;;;;;;;759.93;715.50;;;10.10;99.90;;;;;;5072576;28;20452;-68
2024/04/01 10:40:20;;;;;;;774.23;726.80;;;10.20;99.90;;;;;;5072989;28;20460;-68
2024/04/01 10:43:19;;;;;;;761.00;717.60;;;10.30;99.90;;;;;;5081295;28;20852;-68
2024/04/01 10:46:30;;;;;;;761.90;717.90;;;10.40;99.90;;;;;;5098823;28;20458;-67
2024/04/01 10:49:29;;;;;;;769.47;728.07;;;10.60;99.90;;;;;;5088388;28;20470;-68
2024/04/01 10:52:26;;;;;;;756.23;719.23;;;10.70;99.90;;;;;;5080868;28;20458;-68
2024/04/01 10:55:13;;;;;;;710.70;682.30;;;10.70;99.90;;;;;;5077277;28;20457;-68
2024/04/01 10:58:06;;;;;;;607.70;588.20;;;10.50;99.90;;;;;;5073531;28;20473;-68
2024/04/01 11:01:07;;;;;;;656.57;633.67;;;10.60;99.90;;;;;;5072561;28;20449;-68
2024/04/01 11:04:09;;;;;;;586.73;567.33;;;10.50;99.90;;;;;;5080142;28;20488;-68
2024/04/01 11:06:57;;;;;;;629.60;608.63;;;10.60;99.90;;;;;;5069659;28;20966;-68
2024/04/01 11:09:44;;;;;;;545.60;528.60;;;10.70;99.90;;;;;;5070758;28;20450;-69
2024/04/01 11:12:21;;;;;;;629.45;608.28;;;10.60;99.90;;;;;;5072029;28;20457;-68
2024/04/01 11:14:51;;;;;;;327.67;317.50;;;10.70;99.90;;;;;;5073414;28;20207;-68
2024/04/01 11:17:19;;;;;;;453.43;439.40;;;10.60;99.90;;;;;;5078276;28;20441;-68
2024/04/01 11:20:15;;;;;;;316.40;307.10;;;10.70;99.90;;;;;;5091334;28;20552;-68
2024/04/01 11:22:53;;;;;;;237.83;230.53;;;10.80;99.90;;;;;;5091460;28;20460;-68
2024/04/01 11:25:27;;;;;;;214.63;207.60;;;10.80;99.90;;;;;;5092224;28;20890;-68
2024/04/01 11:28:14;;;;;;;159.03;153.43;;;10.80;99.90;;;;;;5080404;28;20478;-68
2024/04/01 11:30:41;;;;;;;162.10;156.80;;;10.70;99.90;;;;;;5078496;28;21017;-68
2024/04/01 11:33:10;;;;;;;126.63;122.00;;;10.70;99.90;;;;;;5074356;28;20471;-67
2024/04/01 11:35:45;;;;;;;153.30;148.23;;;10.70;99.90;;;;;;5080475;28;20476;-68
2024/04/01 11:38:22;;;;;;;228.33;221.17;;;10.80;99.90;;;;;;5077874;28;20454;-67
2024/04/01 11:40:51;;;;;;;181.63;175.63;;;10.90;99.90;;;;;;5070355;28;20462;-68
2024/04/01 11:43:20;;;;;;;112.93;108.77;;;11.10;99.90;;;;;;5071467;28;20476;-67
2024/04/01 11:45:49;;;;;;;80.13;77.07;;;11.20;99.90;;;;;;5085502;28;20885;-68
2024/04/01 11:48:18;;;;;;;34.97;33.33;;;11.30;99.90;;;;;;5080355;28;21065;-67
2024/04/01 11:50:52;;;;;;;30.63;28.93;;;11.30;99.90;;;;;;5089816;28;20457;-66
2024/04/01 11:53:19;;;;;;;16.37;15.53;;;11.50;99.90;;;;;;5083409;28;20469;-67
2024/04/01 11:55:58;;;;;;;8.87;7.27;;;11.70;99.90;;;;;;5074281;28;20452;-67
2024/04/01 11:58:24;;;;;;;9.90;6.97;;;11.60;99.90;;;;;;5085421;28;20437;-68
2024/04/01 12:00:52;;;;;;;6.37;5.63;;;11.60;99.90;;;;;;5091228;28;20845;-68
2024/04/01 12:03:20;;;;;;;7.30;5.03;;;11.60;99.90;;;;;;5080430;28;21018;-68
2024/04/01 12:05:51;;;;;;;6.83;4.10;;;11.80;99.90;;;;;;5081779;28;20690;-68
2024/04/01 12:08:19;;;;;;;7.03;4.53;;;11.70;99.90;;;;;;5078720;28;20478;-68
2024/04/01 12:10:47;;;;;;;8.57;2.80;;;11.60;99.90;;;;;;5088595;28;20453;-68
2024/04/01 12:13:14;;;;;;;5.20;2.13;;;11.50;99.90;;;;;;5099640;28;20480;-65
2024/04/01 12:15:43;;;;;;;12.23;3.17;;;11.40;99.90;;;;;;5100427;28;20448;-68
2024/04/01 12:18:10;;;;;;;5.40;2.30;;;11.30;99.40;;;;;;5078595;28;20929;-67
2024/04/01 12:20:40;;;;;;;4.80;2.63;;;11.60;99.90;;;;;;5092108;28;20445;-68
2024/04/01 12:23:06;;;;;;;5.63;2.50;;;11.60;98.40;;;;;;5077757;28;20473;-68
2024/04/01 12:25:34;;;;;;;7.00;2.50;;;11.50;98.20;;;;;;5076142;28;20527;-67
2024/04/01 12:28:03;;;;;;;6.63;2.70;;;11.70;98.80;;;;;;5085002;28;20984;-68